AFL1152 ULLI-ULAA
Flight info
| Callsign | AFL1152 |
|---|---|
| Flight time | 1h 11m |
| Altitude | 37000 |
| Route | RELNI1C RELNI T693 DISUP DCT MAKOG MAKOG2L |
| Aircraft | A320/M-SDE3FGHIRWY/LB1 |
Departure
| Time | 2026-04-25 20:16 |
|---|---|
| Airport | Pulkovo Airport (ULLI) |
Arrival
| Time | 2026-04-25 21:27 |
|---|---|
| Airport | Talagi Airport (ULAA) |
| Time | Latitude | Longitude | Altitude | Speed | Heading |
|---|---|---|---|---|---|
| 2026-04-25 18:22 | 59.80158 | 30.26492 | 71 ft | 0 kts | 286° |
| 2026-04-25 20:09 | 59.80160 | 30.26483 | 89 ft | 5 kts | 286° |
| 2026-04-25 20:09 | 59.80169 | 30.26421 | 77 ft | 5 kts | 286° |
| 2026-04-25 20:09 | 59.80198 | 30.26379 | 75 ft | 4 kts | 5° |
| 2026-04-25 20:09 | 59.80232 | 30.26393 | 76 ft | 12 kts | 14° |
| 2026-04-25 20:10 | 59.80324 | 30.26441 | 66 ft | 12 kts | 7° |
| 2026-04-25 20:10 | 59.80392 | 30.26458 | 75 ft | 8 kts | 13° |
| 2026-04-25 20:10 | 59.80434 | 30.26493 | 72 ft | 9 kts | 39° |
| 2026-04-25 20:10 | 59.80433 | 30.26649 | 75 ft | 11 kts | 105° |
| 2026-04-25 20:11 | 59.80413 | 30.26767 | 70 ft | 8 kts | 107° |
| 2026-04-25 20:11 | 59.80398 | 30.26860 | 68 ft | 5 kts | 107° |
| 2026-04-25 20:11 | 59.80391 | 30.26907 | 73 ft | 3 kts | 107° |
| 2026-04-25 20:11 | 59.80380 | 30.26975 | 71 ft | 13 kts | 107° |
| 2026-04-25 20:12 | 59.80354 | 30.27157 | 74 ft | 9 kts | 105° |
| 2026-04-25 20:12 | 59.80353 | 30.27284 | 72 ft | 16 kts | 75° |
| 2026-04-25 20:12 | 59.80387 | 30.27479 | 72 ft | 9 kts | 70° |
| 2026-04-25 20:12 | 59.80388 | 30.27486 | 73 ft | 0 kts | 70° |
| 2026-04-25 20:14 | 59.80390 | 30.27498 | 69 ft | 5 kts | 70° |
| 2026-04-25 20:14 | 59.80415 | 30.27645 | 75 ft | 13 kts | 72° |
| 2026-04-25 20:14 | 59.80438 | 30.27784 | 67 ft | 8 kts | 71° |
| 2026-04-25 20:14 | 59.80458 | 30.27852 | 67 ft | 5 kts | 34° |
| 2026-04-25 20:15 | 59.80494 | 30.27785 | 67 ft | 0 kts | 287° |
| 2026-04-25 20:15 | 59.80531 | 30.27525 | 66 ft | 57 kts | 286° |
| 2026-04-25 20:15 | 59.80710 | 30.26308 | 74 ft | 123 kts | 285° |
| 2026-04-25 20:16 | 59.80966 | 30.24373 | 356 ft | 150 kts | 282° |
| 2026-04-25 20:16 | 59.81235 | 30.22401 | 1166 ft | 147 kts | 285° |
| 2026-04-25 20:16 | 59.81545 | 30.20403 | 1606 ft | 161 kts | 285° |
| 2026-04-25 20:16 | 59.81894 | 30.18159 | 1926 ft | 181 kts | 285° |
| 2026-04-25 20:17 | 59.82275 | 30.15560 | 2173 ft | 205 kts | 284° |
| 2026-04-25 20:17 | 59.82689 | 30.12717 | 2558 ft | 227 kts | 284° |
| 2026-04-25 20:17 | 59.83130 | 30.09692 | 3375 ft | 229 kts | 284° |
| 2026-04-25 20:17 | 59.83584 | 30.06632 | 4217 ft | 233 kts | 283° |
| 2026-04-25 20:18 | 59.84058 | 30.03516 | 5058 ft | 235 kts | 284° |
| 2026-04-25 20:18 | 59.84752 | 30.00559 | 5884 ft | 244 kts | 306° |
| 2026-04-25 20:18 | 59.85636 | 29.99083 | 6402 ft | 251 kts | 330° |
| 2026-04-25 20:18 | 59.87988 | 29.98497 | 7388 ft | 264 kts | 7° |
| 2026-04-25 20:19 | 59.89758 | 29.99415 | 8177 ft | 268 kts | 19° |
| 2026-04-25 20:19 | 59.91479 | 30.00893 | 8971 ft | 272 kts | 36° |
| 2026-04-25 20:19 | 59.92604 | 30.03655 | 9649 ft | 272 kts | 68° |
| 2026-04-25 20:19 | 59.93184 | 30.07288 | 10322 ft | 273 kts | 85° |
| 2026-04-25 20:20 | 59.93143 | 30.11028 | 10974 ft | 274 kts | 105° |
| 2026-04-25 20:20 | 59.92860 | 30.14961 | 11202 ft | 301 kts | 90° |
| 2026-04-25 20:20 | 59.93154 | 30.17744 | 11346 ft | 321 kts | 69° |
| 2026-04-25 20:20 | 59.94512 | 30.21479 | 11540 ft | 346 kts | 39° |
| 2026-04-25 20:21 | 59.96553 | 30.23955 | 12016 ft | 356 kts | 28° |
| 2026-04-25 20:21 | 59.98388 | 30.26397 | 12581 ft | 361 kts | 37° |
| 2026-04-25 20:21 | 59.99796 | 30.28612 | 13084 ft | 363 kts | 40° |
| 2026-04-25 20:21 | 60.01713 | 30.31905 | 13691 ft | 367 kts | 42° |
| 2026-04-25 20:22 | 60.03594 | 30.35296 | 14305 ft | 371 kts | 43° |
| 2026-04-25 20:22 | 60.04611 | 30.37145 | 14635 ft | 373 kts | 43° |
| 2026-04-25 20:22 | 60.07122 | 30.41663 | 15422 ft | 377 kts | 42° |
| 2026-04-25 20:22 | 60.09102 | 30.45148 | 16037 ft | 381 kts | 41° |
| 2026-04-25 20:23 | 60.10940 | 30.48327 | 16582 ft | 385 kts | 41° |
| 2026-04-25 20:23 | 60.12991 | 30.51841 | 17186 ft | 388 kts | 41° |
| 2026-04-25 20:23 | 60.15055 | 30.55365 | 17753 ft | 392 kts | 41° |
| 2026-04-25 20:23 | 60.17059 | 30.58794 | 18257 ft | 395 kts | 41° |
| 2026-04-25 20:24 | 60.18448 | 30.61176 | 18589 ft | 397 kts | 41° |
| 2026-04-25 20:24 | 60.18789 | 30.61761 | 18678 ft | 398 kts | 41° |
| 2026-04-25 20:24 | 60.23395 | 30.69712 | 19791 ft | 405 kts | 41° |
| 2026-04-25 20:24 | 60.25536 | 30.73438 | 20293 ft | 408 kts | 41° |
| 2026-04-25 20:25 | 60.27694 | 30.77204 | 20784 ft | 411 kts | 41° |
| 2026-04-25 20:25 | 60.29865 | 30.80995 | 21279 ft | 414 kts | 41° |
| 2026-04-25 20:25 | 60.31802 | 30.84376 | 21693 ft | 417 kts | 41° |
| 2026-04-25 20:25 | 60.32251 | 30.85156 | 21790 ft | 417 kts | 41° |
| 2026-04-25 20:26 | 60.34462 | 30.89011 | 22261 ft | 420 kts | 41° |
| 2026-04-25 20:26 | 60.36685 | 30.92897 | 22731 ft | 423 kts | 41° |
| 2026-04-25 20:26 | 60.38923 | 30.96822 | 23138 ft | 426 kts | 41° |
| 2026-04-25 20:26 | 60.41167 | 31.00769 | 23518 ft | 428 kts | 41° |
| 2026-04-25 20:27 | 60.43416 | 31.04741 | 23936 ft | 430 kts | 41° |
| 2026-04-25 20:27 | 60.45666 | 31.08716 | 24323 ft | 432 kts | 41° |
| 2026-04-25 20:27 | 60.47943 | 31.12736 | 24694 ft | 434 kts | 41° |
| 2026-04-25 20:27 | 60.50233 | 31.16783 | 25060 ft | 436 kts | 41° |
| 2026-04-25 20:28 | 60.52528 | 31.20854 | 25422 ft | 439 kts | 41° |
| 2026-04-25 20:28 | 60.54794 | 31.24881 | 25774 ft | 441 kts | 41° |
| 2026-04-25 20:28 | 60.57100 | 31.28987 | 26137 ft | 443 kts | 41° |
| 2026-04-25 20:28 | 60.59427 | 31.33140 | 26490 ft | 445 kts | 41° |
| 2026-04-25 20:29 | 60.61757 | 31.37308 | 26834 ft | 448 kts | 41° |
| 2026-04-25 20:29 | 60.64096 | 31.41501 | 27175 ft | 450 kts | 41° |
| 2026-04-25 20:29 | 60.66459 | 31.45746 | 27523 ft | 453 kts | 41° |
| 2026-04-25 20:29 | 60.68828 | 31.50007 | 27832 ft | 455 kts | 40° |
| 2026-04-25 20:30 | 60.70435 | 31.52897 | 28040 ft | 457 kts | 41° |
| 2026-04-25 20:30 | 60.73609 | 31.58619 | 28460 ft | 460 kts | 41° |
| 2026-04-25 20:30 | 60.76009 | 31.62964 | 28778 ft | 463 kts | 41° |
| 2026-04-25 20:30 | 60.78408 | 31.67329 | 29085 ft | 465 kts | 41° |
| 2026-04-25 20:31 | 60.80851 | 31.71786 | 29374 ft | 468 kts | 41° |
| 2026-04-25 20:31 | 60.83277 | 31.76216 | 29613 ft | 470 kts | 41° |
| 2026-04-25 20:31 | 60.85730 | 31.80701 | 29848 ft | 472 kts | 41° |
| 2026-04-25 20:31 | 60.88186 | 31.85200 | 30085 ft | 474 kts | 41° |
| 2026-04-25 20:32 | 60.90650 | 31.89713 | 30317 ft | 476 kts | 41° |
| 2026-04-25 20:32 | 60.93128 | 31.94259 | 30551 ft | 477 kts | 41° |
| 2026-04-25 20:32 | 60.95592 | 31.98800 | 30881 ft | 476 kts | 41° |
| 2026-04-25 20:32 | 60.98048 | 32.03381 | 31208 ft | 476 kts | 41° |
| 2026-04-25 20:33 | 61.00585 | 32.07633 | 31518 ft | 475 kts | 35° |
| 2026-04-25 20:33 | 61.03135 | 32.11959 | 31802 ft | 475 kts | 41° |
| 2026-04-25 20:33 | 61.05555 | 32.16598 | 32123 ft | 474 kts | 41° |
| 2026-04-25 20:33 | 61.07238 | 32.19381 | 32781 ft | 460 kts | 31° |
| 2026-04-25 20:34 | 61.11105 | 32.22794 | 33357 ft | 454 kts | 17° |
| 2026-04-25 20:34 | 61.13999 | 32.25507 | 33470 ft | 461 kts | 31° |
| 2026-04-25 20:34 | 61.16545 | 32.29593 | 33584 ft | 466 kts | 41° |
| 2026-04-25 20:34 | 61.18959 | 32.34131 | 33701 ft | 470 kts | 41° |
| 2026-04-25 20:35 | 61.21377 | 32.38748 | 33845 ft | 472 kts | 42° |
| 2026-04-25 20:35 | 61.23793 | 32.43428 | 34056 ft | 473 kts | 42° |
| 2026-04-25 20:35 | 61.26184 | 32.48104 | 34291 ft | 473 kts | 42° |
| 2026-04-25 20:35 | 61.28581 | 32.52805 | 34441 ft | 475 kts | 42° |
| 2026-04-25 20:36 | 61.30987 | 32.57520 | 34559 ft | 478 kts | 42° |
| 2026-04-25 20:36 | 61.33420 | 32.62287 | 34676 ft | 481 kts | 42° |
| 2026-04-25 20:36 | 61.35862 | 32.67067 | 34800 ft | 483 kts | 42° |
| 2026-04-25 20:36 | 61.38324 | 32.71887 | 34918 ft | 485 kts | 42° |
| 2026-04-25 20:37 | 61.40789 | 32.76722 | 35043 ft | 488 kts | 42° |
| 2026-04-25 20:37 | 61.43220 | 32.81510 | 35157 ft | 489 kts | 42° |
| 2026-04-25 20:37 | 61.45696 | 32.86403 | 35276 ft | 491 kts | 42° |
| 2026-04-25 20:37 | 61.48181 | 32.91323 | 35404 ft | 493 kts | 42° |
| 2026-04-25 20:38 | 61.50675 | 32.96277 | 35518 ft | 494 kts | 42° |
| 2026-04-25 20:38 | 61.53161 | 33.01228 | 35678 ft | 494 kts | 42° |
| 2026-04-25 20:38 | 61.55661 | 33.06219 | 35830 ft | 494 kts | 42° |
| 2026-04-25 20:38 | 61.58150 | 33.11197 | 36013 ft | 494 kts | 43° |
| 2026-04-25 20:39 | 61.60634 | 33.16176 | 36194 ft | 493 kts | 43° |
| 2026-04-25 20:39 | 61.63111 | 33.21143 | 36337 ft | 493 kts | 43° |
| 2026-04-25 20:39 | 61.67235 | 33.29436 | 36370 ft | 493 kts | 43° |
| 2026-04-25 20:40 | 61.73020 | 33.41137 | 36367 ft | 493 kts | 43° |
| 2026-04-25 20:40 | 61.77958 | 33.51182 | 36373 ft | 493 kts | 43° |
| 2026-04-25 20:41 | 61.82879 | 33.61234 | 36376 ft | 493 kts | 43° |
| 2026-04-25 20:41 | 61.87823 | 33.71376 | 36380 ft | 493 kts | 43° |
| 2026-04-25 20:42 | 61.92749 | 33.81540 | 36375 ft | 493 kts | 43° |
| 2026-04-25 20:42 | 61.97667 | 33.91731 | 36377 ft | 493 kts | 43° |
| 2026-04-25 20:43 | 62.02571 | 34.01940 | 36383 ft | 495 kts | 43° |
| 2026-04-25 20:43 | 62.07447 | 34.12089 | 36364 ft | 488 kts | 43° |
| 2026-04-25 20:44 | 62.12287 | 34.22198 | 36339 ft | 489 kts | 43° |
| 2026-04-25 20:44 | 62.17164 | 34.32482 | 36349 ft | 496 kts | 44° |
| 2026-04-25 20:45 | 62.22090 | 34.42932 | 36365 ft | 502 kts | 44° |
| 2026-04-25 20:45 | 62.27077 | 34.53570 | 36412 ft | 507 kts | 44° |
| 2026-04-25 20:46 | 62.31987 | 34.64105 | 36410 ft | 487 kts | 44° |
| 2026-04-25 20:46 | 62.36746 | 34.74364 | 36410 ft | 482 kts | 44° |
| 2026-04-25 20:47 | 62.41475 | 34.84594 | 36421 ft | 481 kts | 44° |
| 2026-04-25 20:47 | 62.46207 | 34.94872 | 36421 ft | 485 kts | 44° |
| 2026-04-25 20:48 | 62.50956 | 35.05261 | 36427 ft | 487 kts | 44° |
| 2026-04-25 20:48 | 62.55683 | 35.15651 | 36424 ft | 487 kts | 44° |
| 2026-04-25 20:49 | 62.60450 | 35.26157 | 36431 ft | 488 kts | 45° |
| 2026-04-25 20:49 | 62.65201 | 35.36689 | 36435 ft | 488 kts | 45° |
| 2026-04-25 20:50 | 62.69949 | 35.47263 | 36448 ft | 488 kts | 45° |
| 2026-04-25 20:50 | 62.74694 | 35.57884 | 36450 ft | 488 kts | 45° |
| 2026-04-25 20:51 | 62.79421 | 35.68510 | 36459 ft | 489 kts | 45° |
| 2026-04-25 20:51 | 62.84145 | 35.79195 | 36451 ft | 489 kts | 45° |
| 2026-04-25 20:52 | 62.88107 | 35.88206 | 36461 ft | 489 kts | 45° |
| 2026-04-25 20:52 | 62.93581 | 36.00704 | 36481 ft | 489 kts | 45° |
| 2026-04-25 20:53 | 62.98300 | 36.11529 | 36479 ft | 490 kts | 45° |
| 2026-04-25 20:53 | 63.03016 | 36.22384 | 36485 ft | 490 kts | 45° |
| 2026-04-25 20:54 | 63.07716 | 36.33288 | 36487 ft | 490 kts | 46° |
| 2026-04-25 20:54 | 63.09789 | 36.38121 | 36487 ft | 490 kts | 46° |
| 2026-04-25 20:55 | 63.14486 | 36.49084 | 36494 ft | 490 kts | 46° |
| 2026-04-25 20:55 | 63.19177 | 36.60052 | 36494 ft | 490 kts | 46° |
| 2026-04-25 20:56 | 63.23627 | 36.70533 | 36509 ft | 490 kts | 47° |
| 2026-04-25 20:56 | 63.25632 | 36.76636 | 36504 ft | 490 kts | 63° |
| 2026-04-25 20:56 | 63.25134 | 36.74227 | 36505 ft | 490 kts | 52° |
| 2026-04-25 20:57 | 63.26854 | 36.80722 | 36501 ft | 490 kts | 65° |
| 2026-04-25 20:57 | 63.25398 | 36.74723 | 36506 ft | 490 kts | 46° |
| 2026-04-25 20:57 | 63.27893 | 36.80652 | 36506 ft | 490 kts | 46° |
| 2026-04-25 20:58 | 63.32524 | 36.91697 | 36507 ft | 490 kts | 46° |
| 2026-04-25 20:58 | 63.37164 | 37.02827 | 36509 ft | 491 kts | 46° |
| 2026-04-25 20:59 | 63.41817 | 37.14010 | 36524 ft | 491 kts | 46° |
| 2026-04-25 20:59 | 63.46451 | 37.25214 | 36497 ft | 491 kts | 46° |
| 2026-04-25 21:00 | 63.48782 | 37.30871 | 35630 ft | 499 kts | 46° |
| 2026-04-25 21:00 | 63.49576 | 37.32802 | 35354 ft | 501 kts | 46° |
| 2026-04-25 21:00 | 63.55699 | 37.47740 | 34684 ft | 473 kts | 46° |
| 2026-04-25 21:01 | 63.57909 | 37.53149 | 34054 ft | 474 kts | 46° |
| 2026-04-25 21:01 | 63.60152 | 37.58655 | 33342 ft | 477 kts | 46° |
| 2026-04-25 21:01 | 63.62383 | 37.64152 | 32676 ft | 475 kts | 46° |
| 2026-04-25 21:01 | 63.64608 | 37.69650 | 32140 ft | 470 kts | 46° |
| 2026-04-25 21:02 | 63.66781 | 37.75031 | 31636 ft | 465 kts | 46° |
| 2026-04-25 21:02 | 63.68958 | 37.80438 | 31139 ft | 460 kts | 46° |
| 2026-04-25 21:02 | 63.70370 | 37.83954 | 30818 ft | 456 kts | 46° |
| 2026-04-25 21:02 | 63.72484 | 37.89232 | 30355 ft | 451 kts | 47° |
| 2026-04-25 21:03 | 63.74575 | 37.94463 | 29902 ft | 447 kts | 47° |
| 2026-04-25 21:03 | 63.76640 | 37.99640 | 29417 ft | 442 kts | 47° |
| 2026-04-25 21:03 | 63.79349 | 38.06452 | 28639 ft | 436 kts | 46° |
| 2026-04-25 21:03 | 63.81379 | 38.11560 | 27892 ft | 437 kts | 46° |
| 2026-04-25 21:04 | 63.82744 | 38.14996 | 27450 ft | 436 kts | 46° |
| 2026-04-25 21:04 | 63.84767 | 38.20099 | 27028 ft | 429 kts | 46° |
| 2026-04-25 21:04 | 63.86746 | 38.25105 | 26521 ft | 424 kts | 46° |
| 2026-04-25 21:04 | 63.88682 | 38.30010 | 26022 ft | 421 kts | 46° |
| 2026-04-25 21:05 | 63.90620 | 38.34943 | 25865 ft | 407 kts | 46° |
| 2026-04-25 21:05 | 63.92459 | 38.39646 | 25667 ft | 397 kts | 46° |
| 2026-04-25 21:05 | 63.94288 | 38.44333 | 25294 ft | 392 kts | 46° |
| 2026-04-25 21:05 | 63.96074 | 38.48923 | 24884 ft | 389 kts | 45° |
| 2026-04-25 21:06 | 63.97865 | 38.53530 | 24439 ft | 386 kts | 45° |
| 2026-04-25 21:06 | 63.99646 | 38.58108 | 24005 ft | 384 kts | 45° |
| 2026-04-25 21:06 | 64.01414 | 38.62655 | 23573 ft | 382 kts | 45° |
| 2026-04-25 21:06 | 64.02572 | 38.65642 | 23298 ft | 380 kts | 45° |
| 2026-04-25 21:07 | 64.04897 | 38.71659 | 22716 ft | 377 kts | 45° |
| 2026-04-25 21:07 | 64.06629 | 38.76155 | 22262 ft | 374 kts | 45° |
| 2026-04-25 21:07 | 64.08338 | 38.80605 | 21835 ft | 372 kts | 45° |
| 2026-04-25 21:07 | 64.10046 | 38.85059 | 21392 ft | 369 kts | 45° |
| 2026-04-25 21:08 | 64.11733 | 38.89461 | 20975 ft | 366 kts | 45° |
| 2026-04-25 21:08 | 64.13410 | 38.93837 | 20549 ft | 364 kts | 45° |
| 2026-04-25 21:08 | 64.15072 | 38.98182 | 20143 ft | 361 kts | 45° |
| 2026-04-25 21:08 | 64.16720 | 39.02509 | 19745 ft | 359 kts | 46° |
| 2026-04-25 21:09 | 64.19972 | 39.11044 | 19005 ft | 355 kts | 46° |
| 2026-04-25 21:09 | 64.21587 | 39.15301 | 18642 ft | 352 kts | 46° |
| 2026-04-25 21:09 | 64.23192 | 39.19542 | 18299 ft | 350 kts | 46° |
| 2026-04-25 21:10 | 64.24784 | 39.23767 | 17922 ft | 348 kts | 46° |
| 2026-04-25 21:10 | 64.26362 | 39.27962 | 17547 ft | 346 kts | 46° |
| 2026-04-25 21:10 | 64.27936 | 39.32154 | 17141 ft | 345 kts | 46° |
| 2026-04-25 21:10 | 64.29499 | 39.36329 | 16761 ft | 342 kts | 46° |
| 2026-04-25 21:11 | 64.31016 | 39.40508 | 16386 ft | 341 kts | 49° |
| 2026-04-25 21:11 | 64.32510 | 39.44983 | 16088 ft | 364 kts | 51° |
| 2026-04-25 21:11 | 64.34009 | 39.49691 | 15817 ft | 362 kts | 52° |
| 2026-04-25 21:11 | 64.35454 | 39.54349 | 15684 ft | 351 kts | 52° |
| 2026-04-25 21:12 | 64.36857 | 39.58886 | 15547 ft | 341 kts | 52° |
| 2026-04-25 21:12 | 64.38229 | 39.63288 | 15354 ft | 334 kts | 52° |
| 2026-04-25 21:12 | 64.39586 | 39.67611 | 15048 ft | 331 kts | 51° |
| 2026-04-25 21:12 | 64.40566 | 39.70278 | 14802 ft | 327 kts | 39° |
| 2026-04-25 21:13 | 64.43098 | 39.74029 | 14250 ft | 323 kts | 25° |
| 2026-04-25 21:13 | 64.45068 | 39.76528 | 13889 ft | 322 kts | 25° |
| 2026-04-25 21:13 | 64.47001 | 39.78995 | 13576 ft | 320 kts | 25° |
| 2026-04-25 21:13 | 64.48946 | 39.81488 | 13266 ft | 319 kts | 25° |
| 2026-04-25 21:14 | 64.50899 | 39.83996 | 12938 ft | 315 kts | 25° |
| 2026-04-25 21:14 | 64.52781 | 39.86412 | 12599 ft | 313 kts | 25° |
| 2026-04-25 21:14 | 64.54710 | 39.88892 | 12203 ft | 312 kts | 26° |
| 2026-04-25 21:14 | 64.56648 | 39.91382 | 11455 ft | 320 kts | 26° |
| 2026-04-25 21:15 | 64.58558 | 39.93850 | 10746 ft | 317 kts | 27° |
| 2026-04-25 21:15 | 64.60475 | 39.96337 | 10042 ft | 313 kts | 27° |
| 2026-04-25 21:15 | 64.62374 | 39.98799 | 9177 ft | 313 kts | 27° |
| 2026-04-25 21:15 | 64.64281 | 40.01269 | 8243 ft | 313 kts | 27° |
| 2026-04-25 21:16 | 64.66080 | 40.04225 | 7310 ft | 314 kts | 45° |
| 2026-04-25 21:16 | 64.67301 | 40.08338 | 6413 ft | 313 kts | 66° |
| 2026-04-25 21:16 | 64.67817 | 40.13223 | 5512 ft | 311 kts | 89° |
| 2026-04-25 21:16 | 64.67524 | 40.18178 | 4591 ft | 306 kts | 111° |
| 2026-04-25 21:17 | 64.66603 | 40.22634 | 3683 ft | 311 kts | 120° |
| 2026-04-25 21:17 | 64.65566 | 40.27168 | 2750 ft | 321 kts | 119° |
| 2026-04-25 21:17 | 64.64510 | 40.31792 | 2135 ft | 320 kts | 118° |
| 2026-04-25 21:17 | 64.63490 | 40.36263 | 1963 ft | 303 kts | 119° |
| 2026-04-25 21:18 | 64.62539 | 40.40449 | 1961 ft | 280 kts | 119° |
| 2026-04-25 21:18 | 64.61681 | 40.44244 | 1966 ft | 248 kts | 118° |
| 2026-04-25 21:18 | 64.61161 | 40.47847 | 1886 ft | 227 kts | 99° |
| 2026-04-25 21:18 | 64.60987 | 40.51427 | 1631 ft | 220 kts | 97° |
| 2026-04-25 21:19 | 64.60824 | 40.54964 | 1341 ft | 217 kts | 97° |
| 2026-04-25 21:19 | 64.60665 | 40.58361 | 1026 ft | 203 kts | 97° |
| 2026-04-25 21:19 | 64.60515 | 40.61517 | 753 ft | 186 kts | 97° |
| 2026-04-25 21:19 | 64.60378 | 40.64360 | 654 ft | 164 kts | 96° |
| 2026-04-25 21:20 | 64.60256 | 40.67081 | 1406 ft | 172 kts | 98° |
| 2026-04-25 21:20 | 64.60165 | 40.68928 | 1798 ft | 177 kts | 99° |
| 2026-04-25 21:20 | 64.59607 | 40.72717 | 2344 ft | 195 kts | 134° |
| 2026-04-25 21:20 | 64.58466 | 40.73989 | 2687 ft | 183 kts | 186° |
| 2026-04-25 21:21 | 64.57283 | 40.73061 | 3030 ft | 180 kts | 214° |
| 2026-04-25 21:21 | 64.56690 | 40.70663 | 3190 ft | 181 kts | 270° |
| 2026-04-25 21:21 | 64.56828 | 40.67789 | 3565 ft | 181 kts | 261° |
| 2026-04-25 21:21 | 64.56334 | 40.65146 | 3599 ft | 184 kts | 239° |
| 2026-04-25 21:22 | 64.55917 | 40.62306 | 3275 ft | 186 kts | 266° |
| 2026-04-25 21:22 | 64.56135 | 40.59494 | 3155 ft | 180 kts | 288° |
| 2026-04-25 21:22 | 64.56589 | 40.56792 | 2916 ft | 178 kts | 289° |
| 2026-04-25 21:22 | 64.57057 | 40.54033 | 2426 ft | 189 kts | 289° |
| 2026-04-25 21:23 | 64.57551 | 40.51138 | 2019 ft | 193 kts | 290° |
| 2026-04-25 21:23 | 64.58028 | 40.48351 | 1991 ft | 178 kts | 289° |
| 2026-04-25 21:23 | 64.58474 | 40.45737 | 1991 ft | 170 kts | 289° |
| 2026-04-25 21:23 | 64.58944 | 40.43247 | 1986 ft | 168 kts | 303° |
| 2026-04-25 21:24 | 64.59916 | 40.41972 | 1985 ft | 162 kts | 359° |
| 2026-04-25 21:24 | 64.60916 | 40.42894 | 1990 ft | 157 kts | 50° |
| 2026-04-25 21:24 | 64.61283 | 40.45176 | 2005 ft | 151 kts | 98° |
| 2026-04-25 21:24 | 64.61131 | 40.47600 | 1952 ft | 153 kts | 97° |
| 2026-04-25 21:25 | 64.61040 | 40.49996 | 1777 ft | 145 kts | 98° |
| 2026-04-25 21:25 | 64.60942 | 40.52296 | 1573 ft | 141 kts | 98° |
| 2026-04-25 21:25 | 64.60841 | 40.54551 | 1380 ft | 139 kts | 98° |
| 2026-04-25 21:25 | 64.60737 | 40.56777 | 1182 ft | 138 kts | 98° |
| 2026-04-25 21:26 | 64.60633 | 40.58985 | 973 ft | 137 kts | 98° |
| 2026-04-25 21:26 | 64.60531 | 40.61179 | 771 ft | 136 kts | 97° |
| 2026-04-25 21:26 | 64.60434 | 40.63371 | 541 ft | 135 kts | 98° |
| 2026-04-25 21:26 | 64.60320 | 40.65537 | 390 ft | 134 kts | 96° |
| 2026-04-25 21:27 | 64.60222 | 40.67677 | 198 ft | 134 kts | 97° |
| 2026-04-25 21:27 | 64.60116 | 40.69833 | 48 ft | 132 kts | 97° |
| 2026-04-25 21:27 | 64.60055 | 40.71088 | 39 ft | 0 kts | 96° |